Time;durP1;ratioP1;P1;durP2;ratioP2;P2;SDS_P1;SDS_P2;PMS_P1;PMS_P2;Temp;Humidity;BMP_temperature;BMP_pressure;BME280_temperature;BME280_humidity;BME280_pressure;Samples;Min_cycle;Max_cycle;Signal;HPM_P1;HPM_P2
2023/11/11 00:00:29;;;;;;;17.92;8.45;;;;;;;;;;4990563;28;20035;-71
2023/11/11 00:02:55;;;;;;;12.55;8.13;;;;;;;;;;4974350;28;20042;-71
2023/11/11 00:05:22;;;;;;;13.80;8.77;;;;;;;;;;4974841;28;20034;-71
2023/11/11 00:07:47;;;;;;;13.38;8.00;;;;;;;;;;4958031;28;20035;-71
2023/11/11 00:10:13;;;;;;;12.48;8.45;;;;;;;;;;4974238;28;20078;-72
2023/11/11 00:12:39;;;;;;;12.07;7.93;;;;;;;;;;4958104;28;20046;-71
2023/11/11 00:15:06;;;;;;;14.95;8.75;;;;;;;;;;4973975;28;20074;-69
2023/11/11 00:17:31;;;;;;;11.82;7.57;;;;;;;;;;4974246;28;20496;-71
2023/11/11 00:19:59;;;;;;;14.32;8.85;;;;;;;;;;4974136;28;20051;-72
2023/11/11 00:22:24;;;;;;;14.57;8.32;;;;;;;;;;4974731;28;20043;-72
2023/11/11 00:24:50;;;;;;;13.98;9.07;;;;;;;;;;4974162;28;20045;-72
2023/11/11 00:27:16;;;;;;;15.27;9.60;;;;;;;;;;4973679;28;20402;-71
2023/11/11 00:29:42;;;;;;;14.57;8.98;;;;;;;;;;4974935;28;20038;-72
2023/11/11 00:32:07;;;;;;;19.35;9.48;;;;;;;;;;4974634;28;20036;-71
2023/11/11 00:34:34;;;;;;;13.23;9.63;;;;;;;;;;4973794;28;20089;-72
2023/11/11 00:37:00;;;;;;;14.80;10.13;;;;;;;;;;4974557;28;20385;-70
2023/11/11 00:39:26;;;;;;;19.40;10.45;;;;;;;;;;4974835;28;20030;-70
2023/11/11 00:41:52;;;;;;;15.40;10.43;;;;;;;;;;4973463;28;20363;-70
2023/11/11 00:44:21;;;;;;;18.63;10.55;;;;;;;;;;4973703;28;20046;-70
2023/11/11 00:46:46;;;;;;;15.50;10.25;;;;;;;;;;4956563;28;20488;-70
2023/11/11 00:49:12;;;;;;;20.17;10.48;;;;;;;;;;4956898;28;20074;-72
2023/11/11 00:51:41;;;;;;;18.02;10.57;;;;;;;;;;4973393;28;20429;-71
2023/11/11 00:54:08;;;;;;;18.35;10.75;;;;;;;;;;4957296;28;20045;-69
2023/11/11 00:56:34;;;;;;;20.80;11.30;;;;;;;;;;4974664;28;20145;-70
2023/11/11 00:59:00;;;;;;;21.10;11.77;;;;;;;;;;4975017;28;20097;-71
2023/11/11 01:01:25;;;;;;;18.55;10.25;;;;;;;;;;4973406;28;20047;-71
2023/11/11 01:03:51;;;;;;;17.83;11.35;;;;;;;;;;4973337;28;20046;-70
2023/11/11 01:06:16;;;;;;;18.83;12.23;;;;;;;;;;4957030;28;20362;-71
2023/11/11 01:08:42;;;;;;;20.60;11.88;;;;;;;;;;4973173;28;20473;-72
2023/11/11 01:11:08;;;;;;;19.23;12.35;;;;;;;;;;4957016;28;20563;-69
2023/11/11 01:13:35;;;;;;;17.23;11.15;;;;;;;;;;4973248;28;20133;-71
2023/11/11 01:16:04;;;;;;;15.05;10.57;;;;;;;;;;4973952;28;20057;-71
2023/11/11 01:18:30;;;;;;;19.05;10.40;;;;;;;;;;4957239;28;20129;-72
2023/11/11 01:20:56;;;;;;;18.23;11.43;;;;;;;;;;4972861;28;20050;-72
2023/11/11 01:23:22;;;;;;;17.80;10.50;;;;;;;;;;4956931;28;20050;-70
2023/11/11 01:25:47;;;;;;;19.88;10.50;;;;;;;;;;4973024;28;20054;-71
2023/11/11 01:28:13;;;;;;;18.60;11.38;;;;;;;;;;4972826;28;20058;-71
2023/11/11 01:30:39;;;;;;;20.20;12.05;;;;;;;;;;4972755;28;20069;-69
2023/11/11 01:33:06;;;;;;;17.60;11.35;;;;;;;;;;4972862;28;20034;-72
2023/11/11 01:35:31;;;;;;;17.45;11.20;;;;;;;;;;4973422;28;20066;-73
2023/11/11 01:37:57;;;;;;;18.83;11.68;;;;;;;;;;4972892;28;20077;-74
2023/11/11 01:40:23;;;;;;;21.45;11.32;;;;;;;;;;4956341;28;20034;-74
2023/11/11 01:42:49;;;;;;;22.02;11.80;;;;;;;;;;4972652;28;20050;-72
2023/11/11 01:45:14;;;;;;;22.00;12.88;;;;;;;;;;4956662;28;20035;-74
2023/11/11 01:47:43;;;;;;;20.25;12.10;;;;;;;;;;4972684;28;20385;-70
2023/11/11 01:50:09;;;;;;;20.83;12.30;;;;;;;;;;4972642;28;20046;-72
2023/11/11 01:52:35;;;;;;;22.17;12.75;;;;;;;;;;4973135;28;20066;-72
2023/11/11 01:55:03;;;;;;;21.27;12.93;;;;;;;;;;4973010;28;20034;-72
2023/11/11 01:57:29;;;;;;;21.80;13.60;;;;;;;;;;4956185;28;20142;-71
2023/11/11 01:59:58;;;;;;;23.25;12.32;;;;;;;;;;4972263;28;20053;-73
2023/11/11 02:02:23;;;;;;;22.20;12.02;;;;;;;;;;4955532;28;20054;-73
2023/11/11 02:04:49;;;;;;;21.13;12.77;;;;;;;;;;4972053;28;20038;-73
2023/11/11 02:07:15;;;;;;;18.70;12.82;;;;;;;;;;4956187;28;20077;-72
2023/11/11 02:09:41;;;;;;;22.23;11.68;;;;;;;;;;4972102;28;20401;-69
2023/11/11 02:12:07;;;;;;;18.70;12.05;;;;;;;;;;4973506;28;20038;-73
2023/11/11 02:14:35;;;;;;;20.88;12.63;;;;;;;;;;4956272;28;20480;-72
2023/11/11 02:17:02;;;;;;;18.65;12.90;;;;;;;;;;4972269;28;20046;-73
2023/11/11 02:19:28;;;;;;;23.35;13.45;;;;;;;;;;4956201;28;20057;-72
2023/11/11 02:21:54;;;;;;;20.23;12.55;;;;;;;;;;4972010;28;20046;-73
2023/11/11 02:24:21;;;;;;;21.10;12.02;;;;;;;;;;4972863;28;20030;-74
2023/11/11 02:26:48;;;;;;;21.55;12.65;;;;;;;;;;4972706;28;20039;-71
2023/11/11 02:29:14;;;;;;;20.58;12.02;;;;;;;;;;4956591;28;20114;-72
2023/11/11 02:31:39;;;;;;;22.13;11.07;;;;;;;;;;4956862;28;20077;-73
2023/11/11 02:34:05;;;;;;;17.73;11.45;;;;;;;;;;4971686;28;20408;-73
2023/11/11 02:36:30;;;;;;;22.88;13.07;;;;;;;;;;4971615;28;20141;-73
2023/11/11 02:38:56;;;;;;;21.52;11.60;;;;;;;;;;4971893;28;20042;-73
2023/11/11 02:41:22;;;;;;;23.67;12.38;;;;;;;;;;4971895;28;20393;-73
2023/11/11 02:43:47;;;;;;;19.23;12.10;;;;;;;;;;4971673;28;20104;-73
2023/11/11 02:46:15;;;;;;;20.48;11.60;;;;;;;;;;4955951;28;20437;-69
2023/11/11 02:48:41;;;;;;;19.58;10.93;;;;;;;;;;4957094;28;20050;-74
2023/11/11 02:51:07;;;;;;;18.02;11.70;;;;;;;;;;4955489;28;20054;-73
2023/11/11 02:53:33;;;;;;;18.85;10.70;;;;;;;;;;4971524;28;20121;-72
2023/11/11 02:55:59;;;;;;;19.05;11.48;;;;;;;;;;4971586;28;20446;-73
2023/11/11 02:58:27;;;;;;;20.27;11.38;;;;;;;;;;4971598;28;20054;-72
2023/11/11 03:00:53;;;;;;;16.50;11.00;;;;;;;;;;4970450;28;20046;-73
2023/11/11 03:03:20;;;;;;;18.08;11.43;;;;;;;;;;4971633;28;20050;-73
2023/11/11 03:05:45;;;;;;;16.95;10.68;;;;;;;;;;4956211;28;20109;-71
2023/11/11 03:08:11;;;;;;;17.25;10.70;;;;;;;;;;4956107;28;20126;-73
2023/11/11 03:10:37;;;;;;;20.80;11.82;;;;;;;;;;4955664;28;20450;-72
2023/11/11 03:13:02;;;;;;;17.77;11.93;;;;;;;;;;4956999;28;20404;-73
2023/11/11 03:15:28;;;;;;;22.88;11.80;;;;;;;;;;4975014;28;20045;-71
2023/11/11 03:17:53;;;;;;;20.02;11.13;;;;;;;;;;4975024;28;20117;-71
2023/11/11 03:20:20;;;;;;;19.20;12.40;;;;;;;;;;4975125;28;20035;-71
2023/11/11 03:22:46;;;;;;;23.23;12.45;;;;;;;;;;4976388;28;20049;-72
2023/11/11 03:25:13;;;;;;;21.15;12.52;;;;;;;;;;4976164;28;20034;-72
2023/11/11 03:27:39;;;;;;;22.02;12.20;;;;;;;;;;4975154;28;20126;-73
2023/11/11 03:30:06;;;;;;;22.33;13.75;;;;;;;;;;4959091;28;20050;-72
2023/11/11 03:32:32;;;;;;;26.15;12.85;;;;;;;;;;4975238;28;20035;-70
2023/11/11 03:34:58;;;;;;;27.80;13.70;;;;;;;;;;4958976;28;20050;-70
2023/11/11 03:37:25;;;;;;;24.33;13.68;;;;;;;;;;4958783;28;20035;-73
2023/11/11 03:39:52;;;;;;;27.45;12.73;;;;;;;;;;4959225;28;20385;-73
2023/11/11 03:42:18;;;;;;;27.02;13.82;;;;;;;;;;4959637;28;20473;-72
2023/11/11 03:44:43;;;;;;;21.45;13.13;;;;;;;;;;4959140;28;20177;-73
2023/11/11 03:47:09;;;;;;;24.85;12.38;;;;;;;;;;4958682;28;20031;-72
2023/11/11 03:49:35;;;;;;;23.95;13.30;;;;;;;;;;4974440;28;20053;-70
2023/11/11 03:52:00;;;;;;;20.00;12.30;;;;;;;;;;4974488;28;20066;-70
2023/11/11 03:54:26;;;;;;;22.25;12.52;;;;;;;;;;4958664;28;20379;-70
2023/11/11 03:56:52;;;;;;;23.20;12.77;;;;;;;;;;4958313;28;20062;-71
2023/11/11 03:59:17;;;;;;;21.10;11.88;;;;;;;;;;4958992;28;20393;-69
2023/11/11 04:01:43;;;;;;;20.98;12.30;;;;;;;;;;4958649;28;20137;-72
2023/11/11 04:04:09;;;;;;;20.40;12.00;;;;;;;;;;4958240;28;20046;-72
2023/11/11 04:06:38;;;;;;;20.50;12.18;;;;;;;;;;4975160;28;20041;-72
2023/11/11 04:09:04;;;;;;;22.42;13.23;;;;;;;;;;4974163;28;20049;-71
2023/11/11 04:11:29;;;;;;;24.20;13.43;;;;;;;;;;4973415;28;20042;-71
2023/11/11 04:13:58;;;;;;;21.52;12.30;;;;;;;;;;4974612;28;20057;-71
2023/11/11 04:16:26;;;;;;;19.58;12.90;;;;;;;;;;4958821;28;20532;-72
2023/11/11 04:18:52;;;;;;;24.45;13.43;;;;;;;;;;4958426;28;20058;-71
2023/11/11 04:21:18;;;;;;;24.92;13.65;;;;;;;;;;4974912;28;20059;-68
2023/11/11 04:23:44;;;;;;;22.13;13.65;;;;;;;;;;4957842;28;20062;-71
2023/11/11 04:26:10;;;;;;;24.50;13.50;;;;;;;;;;4957471;28;20035;-71
2023/11/11 04:28:37;;;;;;;21.98;12.90;;;;;;;;;;4957734;28;20094;-71
2023/11/11 04:31:03;;;;;;;26.50;14.57;;;;;;;;;;4973685;28;20046;-73
2023/11/11 04:33:29;;;;;;;27.08;15.35;;;;;;;;;;4974128;28;20042;-73
2023/11/11 04:35:55;;;;;;;26.38;14.88;;;;;;;;;;4974738;28;20031;-73
2023/11/11 04:38:23;;;;;;;29.92;15.65;;;;;;;;;;4941743;28;20035;-70
2023/11/11 04:40:49;;;;;;;26.25;14.75;;;;;;;;;;4974087;28;20493;-71
2023/11/11 04:43:15;;;;;;;25.38;14.60;;;;;;;;;;4958214;28;20047;-71
2023/11/11 04:45:41;;;;;;;27.45;15.60;;;;;;;;;;4973602;28;20035;-72
2023/11/11 04:48:07;;;;;;;23.05;14.15;;;;;;;;;;4957379;28;20046;-72
2023/11/11 04:50:32;;;;;;;27.98;15.18;;;;;;;;;;4973452;28;20117;-72
2023/11/11 04:52:58;;;;;;;27.40;14.40;;;;;;;;;;4958141;28;20050;-70
2023/11/11 04:55:23;;;;;;;24.95;14.38;;;;;;;;;;4973601;28;20039;-71
2023/11/11 04:57:50;;;;;;;26.38;14.43;;;;;;;;;;4957367;28;20027;-70
2023/11/11 05:00:17;;;;;;;26.73;14.55;;;;;;;;;;4973539;28;20041;-71
2023/11/11 05:02:45;;;;;;;26.10;14.88;;;;;;;;;;4957184;28;20046;-71
2023/11/11 05:05:12;;;;;;;28.70;14.73;;;;;;;;;;4957045;28;20062;-75
2023/11/11 05:07:39;;;;;;;24.42;14.35;;;;;;;;;;4955918;28;20043;-70
2023/11/11 05:10:06;;;;;;;25.05;15.40;;;;;;;;;;4955972;28;20058;-70
2023/11/11 05:12:35;;;;;;;23.67;14.75;;;;;;;;;;4924547;28;20042;-70
2023/11/11 05:15:04;;;;;;;32.38;15.48;;;;;;;;;;4923986;28;20122;-74
2023/11/11 05:17:30;;;;;;;27.13;15.25;;;;;;;;;;4955936;28;20142;-70
2023/11/11 05:19:59;;;;;;;27.05;15.20;;;;;;;;;;4972000;28;20125;-71
2023/11/11 05:22:26;;;;;;;25.15;14.30;;;;;;;;;;4923951;28;20050;-71
2023/11/11 05:24:52;;;;;;;25.90;14.48;;;;;;;;;;4939559;28;20039;-70
2023/11/11 05:27:18;;;;;;;28.55;15.25;;;;;;;;;;4956154;28;20441;-74
2023/11/11 05:29:43;;;;;;;30.05;14.80;;;;;;;;;;4940988;28;20039;-74
2023/11/11 05:32:09;;;;;;;37.97;15.02;;;;;;;;;;4940105;28;20524;-75
2023/11/11 05:34:35;;;;;;;27.73;14.18;;;;;;;;;;4923861;28;20046;-74
2023/11/11 05:37:01;;;;;;;29.33;15.00;;;;;;;;;;4922881;28;20038;-73
2023/11/11 05:39:26;;;;;;;29.65;15.45;;;;;;;;;;4984232;28;20039;-73
2023/11/11 05:41:52;;;;;;;28.90;16.27;;;;;;;;;;4954817;28;20469;-73
2023/11/11 05:44:18;;;;;;;27.55;16.30;;;;;;;;;;4956078;28;20077;-73
2023/11/11 05:46:43;;;;;;;27.05;14.05;;;;;;;;;;4972535;28;20377;-74
2023/11/11 05:49:09;;;;;;;30.55;15.73;;;;;;;;;;4941140;28;20063;-74
2023/11/11 05:51:35;;;;;;;30.33;16.08;;;;;;;;;;4956141;28;20465;-73
2023/11/11 05:54:01;;;;;;;27.38;15.13;;;;;;;;;;4956114;28;20034;-73
2023/11/11 05:56:27;;;;;;;32.70;17.35;;;;;;;;;;4956044;28;20354;-73
2023/11/11 05:58:53;;;;;;;28.42;16.38;;;;;;;;;;4956162;28;20046;-73
2023/11/11 06:01:19;;;;;;;31.73;15.95;;;;;;;;;;4956314;28;20046;-73
2023/11/11 06:03:44;;;;;;;31.85;16.45;;;;;;;;;;4972167;28;20346;-74
2023/11/11 06:06:11;;;;;;;27.30;14.57;;;;;;;;;;4956807;28;20483;-73
2023/11/11 06:08:36;;;;;;;27.38;15.35;;;;;;;;;;4972566;28;20035;-73
2023/11/11 06:11:02;;;;;;;24.63;15.88;;;;;;;;;;4972144;28;20041;-74
2023/11/11 06:13:28;;;;;;;27.30;16.25;;;;;;;;;;4971835;28;20037;-73
2023/11/11 06:15:54;;;;;;;29.73;15.85;;;;;;;;;;4956244;28;20417;-74
2023/11/11 06:18:19;;;;;;;28.85;16.33;;;;;;;;;;4972205;28;20097;-74
2023/11/11 06:20:45;;;;;;;29.75;16.83;;;;;;;;;;4972108;28;20062;-73
2023/11/11 06:23:11;;;;;;;25.63;15.85;;;;;;;;;;4972063;28;20045;-74
2023/11/11 06:25:37;;;;;;;31.48;15.73;;;;;;;;;;4956698;28;20465;-74
2023/11/11 06:28:02;;;;;;;27.90;14.75;;;;;;;;;;4956250;28;20101;-73
2023/11/11 06:30:28;;;;;;;30.00;14.90;;;;;;;;;;4956255;28;20194;-72
2023/11/11 06:32:56;;;;;;;29.45;15.55;;;;;;;;;;4956157;28;20031;-74
2023/11/11 06:35:27;;;;;;;24.30;15.23;;;;;;;;;;4956374;28;20046;-75
2023/11/11 06:37:53;;;;;;;26.90;15.25;;;;;;;;;;4956252;28;20452;-74
2023/11/11 06:40:19;;;;;;;25.60;15.70;;;;;;;;;;4955742;28;20377;-74
2023/11/11 06:42:44;;;;;;;31.13;15.15;;;;;;;;;;4956859;28;20038;-74
2023/11/11 06:45:14;;;;;;;27.48;14.52;;;;;;;;;;4955904;28;20051;-74
2023/11/11 06:47:41;;;;;;;23.02;14.73;;;;;;;;;;4956804;28;20417;-73
2023/11/11 06:50:07;;;;;;;20.98;12.40;;;;;;;;;;4959369;28;20038;-74
2023/11/11 06:52:35;;;;;;;25.55;13.98;;;;;;;;;;4959384;28;20157;-74
2023/11/11 06:55:04;;;;;;;24.10;14.30;;;;;;;;;;4927989;28;20047;-74
2023/11/11 06:57:31;;;;;;;23.05;13.63;;;;;;;;;;4960092;28;20039;-73
2023/11/11 06:59:57;;;;;;;24.27;13.35;;;;;;;;;;4976211;28;20130;-73
2023/11/11 07:02:22;;;;;;;25.13;14.18;;;;;;;;;;4960572;28;20054;-74
2023/11/11 07:04:53;;;;;;;26.45;14.35;;;;;;;;;;4959492;28;20049;-74
2023/11/11 07:07:23;;;;;;;31.10;13.98;;;;;;;;;;4959589;28;20035;-74
2023/11/11 07:09:51;;;;;;;27.27;14.60;;;;;;;;;;4976418;28;20578;-73
2023/11/11 07:12:18;;;;;;;25.08;13.77;;;;;;;;;;4959420;28;20134;-75
2023/11/11 07:14:45;;;;;;;23.88;14.18;;;;;;;;;;4959447;28;20054;-75
2023/11/11 07:17:11;;;;;;;22.05;13.70;;;;;;;;;;4959361;28;20034;-67
2023/11/11 07:19:40;;;;;;;21.40;12.40;;;;;;;;;;4976184;28;20354;-66
2023/11/11 07:22:07;;;;;;;22.75;13.20;;;;;;;;;;4976003;28;20473;-67
2023/11/11 07:24:33;;;;;;;22.63;12.63;;;;;;;;;;4974981;28;20035;-67
2023/11/11 07:27:01;;;;;;;25.20;13.25;;;;;;;;;;4974627;28;20134;-67
2023/11/11 07:29:28;;;;;;;25.40;14.02;;;;;;;;;;4976403;28;20042;-67
2023/11/11 07:31:55;;;;;;;30.95;14.77;;;;;;;;;;4976278;28;20366;-66
2023/11/11 07:34:20;;;;;;;22.17;13.75;;;;;;;;;;4974785;28;20043;-67
2023/11/11 07:36:46;;;;;;;26.00;14.80;;;;;;;;;;4958848;28;20035;-67
2023/11/11 07:39:13;;;;;;;26.73;14.02;;;;;;;;;;4974925;28;20042;-66
2023/11/11 07:41:39;;;;;;;22.80;13.93;;;;;;;;;;4974653;28;20073;-67
2023/11/11 07:44:06;;;;;;;23.25;12.73;;;;;;;;;;4974705;28;20070;-66
2023/11/11 07:46:32;;;;;;;25.85;14.63;;;;;;;;;;4974629;28;20129;-66
2023/11/11 07:48:59;;;;;;;26.98;14.30;;;;;;;;;;4958828;28;20126;-67
2023/11/11 07:51:25;;;;;;;24.67;13.40;;;;;;;;;;4974640;28;20054;-66
2023/11/11 07:53:51;;;;;;;24.73;12.55;;;;;;;;;;4975361;28;20133;-67
2023/11/11 07:56:17;;;;;;;21.60;12.63;;;;;;;;;;4975588;28;20077;-67
2023/11/11 07:58:42;;;;;;;21.05;11.77;;;;;;;;;;4974861;28;20125;-66
2023/11/11 08:01:08;;;;;;;25.27;12.07;;;;;;;;;;4973910;28;20050;-66
2023/11/11 08:03:34;;;;;;;22.13;12.60;;;;;;;;;;4974752;28;20045;-66
2023/11/11 08:05:59;;;;;;;23.75;12.88;;;;;;;;;;4974465;28;20374;-66
2023/11/11 08:08:26;;;;;;;31.83;12.45;;;;;;;;;;4958147;28;20030;-66
2023/11/11 08:10:52;;;;;;;25.92;12.88;;;;;;;;;;4974136;28;20487;-67
2023/11/11 08:13:18;;;;;;;21.40;12.77;;;;;;;;;;4974272;28;20035;-67
2023/11/11 08:15:44;;;;;;;22.25;13.07;;;;;;;;;;4975378;28;20035;-66
2023/11/11 08:18:09;;;;;;;21.85;12.90;;;;;;;;;;4975157;28;20090;-66
2023/11/11 08:20:35;;;;;;;20.45;11.70;;;;;;;;;;4957592;28;20049;-69
2023/11/11 08:23:01;;;;;;;21.88;12.88;;;;;;;;;;4974168;28;20039;-66
2023/11/11 08:25:26;;;;;;;21.73;12.88;;;;;;;;;;4974001;28;20069;-68
2023/11/11 08:27:52;;;;;;;23.13;12.65;;;;;;;;;;4974877;28;20117;-67
2023/11/11 08:30:21;;;;;;;25.38;12.80;;;;;;;;;;4973890;28;20078;-71
2023/11/11 08:32:48;;;;;;;25.55;13.50;;;;;;;;;;4958001;28;20049;-66
2023/11/11 08:35:17;;;;;;;24.52;12.43;;;;;;;;;;4973207;28;20042;-67
2023/11/11 08:37:43;;;;;;;27.77;13.35;;;;;;;;;;4964341;28;20041;-66
2023/11/11 08:40:10;;;;;;;24.27;13.10;;;;;;;;;;4988736;28;20054;-65
2023/11/11 08:42:36;;;;;;;22.08;12.38;;;;;;;;;;4944406;28;20500;-65
2023/11/11 08:45:02;;;;;;;23.40;11.82;;;;;;;;;;4963697;28;20030;-66
2023/11/11 08:47:30;;;;;;;19.60;11.27;;;;;;;;;;4963951;28;20062;-67
2023/11/11 08:49:56;;;;;;;20.35;11.93;;;;;;;;;;4960252;28;20074;-66
2023/11/11 08:52:22;;;;;;;23.30;12.38;;;;;;;;;;4947514;28;20057;-66
2023/11/11 08:54:48;;;;;;;25.77;12.50;;;;;;;;;;4972219;28;20037;-66
2023/11/11 08:57:14;;;;;;;23.80;12.82;;;;;;;;;;4968587;28;20031;-66
2023/11/11 08:59:39;;;;;;;22.30;13.63;;;;;;;;;;4956966;28;20499;-66
2023/11/11 09:02:05;;;;;;;22.52;12.43;;;;;;;;;;4973176;28;20436;-70
2023/11/11 09:04:31;;;;;;;28.77;12.63;;;;;;;;;;4957272;28;20035;-67
2023/11/11 09:06:57;;;;;;;20.90;13.15;;;;;;;;;;4973026;28;20495;-68
2023/11/11 09:09:24;;;;;;;30.55;13.23;;;;;;;;;;4957131;28;20045;-68
2023/11/11 09:11:49;;;;;;;28.15;13.13;;;;;;;;;;4973772;28;20384;-68
2023/11/11 09:14:15;;;;;;;20.67;12.20;;;;;;;;;;4972830;28;20042;-68
2023/11/11 09:16:40;;;;;;;19.55;11.57;;;;;;;;;;4973129;28;20485;-67
2023/11/11 09:19:06;;;;;;;30.98;12.40;;;;;;;;;;4972981;28;20383;-66
2023/11/11 09:21:32;;;;;;;33.63;11.57;;;;;;;;;;4972970;28;20182;-67
2023/11/11 09:24:00;;;;;;;20.10;11.95;;;;;;;;;;4972790;28;20093;-68
2023/11/11 09:26:26;;;;;;;21.13;11.77;;;;;;;;;;4956439;28;20033;-68
2023/11/11 09:28:52;;;;;;;23.55;11.90;;;;;;;;;;4971807;28;20043;-68
2023/11/11 09:31:17;;;;;;;23.10;12.13;;;;;;;;;;4962989;28;20443;-69
2023/11/11 09:33:44;;;;;;;21.13;12.45;;;;;;;;;;4946371;28;20093;-69
2023/11/11 09:36:10;;;;;;;18.85;11.02;;;;;;;;;;4963539;28;20046;-68
2023/11/11 09:38:36;;;;;;;17.35;11.38;;;;;;;;;;4962535;28;20378;-67
2023/11/11 09:41:03;;;;;;;21.63;10.65;;;;;;;;;;4963740;28;20491;-68
2023/11/11 09:43:28;;;;;;;19.60;10.48;;;;;;;;;;4971285;28;20043;-69
2023/11/11 09:45:54;;;;;;;16.98;10.35;;;;;;;;;;4945374;28;20039;-68
2023/11/11 09:48:20;;;;;;;17.50;10.55;;;;;;;;;;4921923;29;20035;-68
2023/11/11 09:50:46;;;;;;;19.92;10.15;;;;;;;;;;4933489;29;20043;-67
2023/11/11 09:53:12;;;;;;;23.70;10.32;;;;;;;;;;4933003;29;20040;-67
2023/11/11 09:55:40;;;;;;;20.33;11.40;;;;;;;;;;4917590;29;20063;-67
2023/11/11 09:58:08;;;;;;;25.83;10.68;;;;;;;;;;4917998;29;20130;-66
2023/11/11 10:00:34;;;;;;;18.58;10.18;;;;;;;;;;4934039;29;20052;-67
2023/11/11 10:03:00;;;;;;;24.85;10.13;;;;;;;;;;4934698;29;20048;-68
2023/11/11 10:05:26;;;;;;;19.92;10.38;;;;;;;;;;4934885;29;20036;-68
2023/11/11 10:07:51;;;;;;;17.70;10.13;;;;;;;;;;4933321;29;20130;-69
2023/11/11 10:10:18;;;;;;;20.25;11.13;;;;;;;;;;4933654;29;20039;-68
2023/11/11 10:12:45;;;;;;;19.95;10.65;;;;;;;;;;4933744;29;20039;-68
2023/11/11 10:15:10;;;;;;;23.52;11.35;;;;;;;;;;4933584;29;20039;-67
2023/11/11 10:17:38;;;;;;;25.40;11.93;;;;;;;;;;4934079;29;20443;-69
2023/11/11 10:20:15;;;;;;;18.42;11.18;;;;;;;;;;4933907;29;20075;-73
2023/11/11 10:22:48;;;;;;;20.75;10.38;;;;;;;;;;4917235;29;20078;-73
2023/11/11 10:25:17;;;;;;;24.60;10.65;;;;;;;;;;4949718;28;20042;-74
2023/11/11 10:27:53;;;;;;;20.83;10.52;;;;;;;;;;4914118;29;20044;-77
2023/11/11 10:30:20;;;;;;;17.85;10.18;;;;;;;;;;4898944;29;20055;-79
2023/11/11 10:32:50;;;;;;;18.67;10.60;;;;;;;;;;4897824;29;20187;-79
2023/11/11 10:35:16;;;;;;;22.40;11.30;;;;;;;;;;4897814;29;20043;-78
2023/11/11 10:37:42;;;;;;;23.88;10.95;;;;;;;;;;4882198;29;20044;-77
2023/11/11 10:40:10;;;;;;;20.67;10.15;;;;;;;;;;4845272;29;20056;-77
2023/11/11 10:42:45;;;;;;;17.83;9.07;;;;;;;;;;4860553;29;20061;-78
2023/11/11 10:45:12;;;;;;;19.67;9.20;;;;;;;;;;4860870;29;20049;-77
2023/11/11 10:47:47;;;;;;;18.25;8.70;;;;;;;;;;4861234;29;20112;-77
2023/11/11 10:50:14;;;;;;;11.52;7.57;;;;;;;;;;4858835;29;20758;-76
2023/11/11 10:52:40;;;;;;;16.85;8.60;;;;;;;;;;4841468;29;20115;-75
2023/11/11 10:55:07;;;;;;;13.77;8.00;;;;;;;;;;4844781;29;20127;-77
2023/11/11 10:57:33;;;;;;;14.65;8.20;;;;;;;;;;4843677;29;20104;-77
2023/11/11 11:00:04;;;;;;;24.75;8.77;;;;;;;;;;4879465;29;20044;-76
2023/11/11 11:02:30;;;;;;;15.73;8.35;;;;;;;;;;4881953;29;20123;-77
2023/11/11 11:05:03;;;;;;;16.40;8.25;;;;;;;;;;4882086;29;20407;-77
2023/11/11 11:07:33;;;;;;;21.77;10.35;;;;;;;;;;4882831;29;20345;-77
2023/11/11 11:10:03;;;;;;;25.10;11.27;;;;;;;;;;4883057;29;20503;-77
2023/11/11 11:12:38;;;;;;;30.77;15.25;;;;;;;;;;4863575;29;20052;-77
2023/11/11 11:15:13;;;;;;;18.60;11.10;;;;;;;;;;4894905;29;20208;-78
2023/11/11 11:17:44;;;;;;;17.50;8.95;;;;;;;;;;4884671;29;20066;-78
2023/11/11 11:20:14;;;;;;;23.38;9.32;;;;;;;;;;4932831;29;20079;-77
2023/11/11 11:22:42;;;;;;;19.13;9.32;;;;;;;;;;4901310;29;20058;-77
2023/11/11 11:25:26;;;;;;;30.60;9.15;;;;;;;;;;4901135;29;20048;-77
2023/11/11 11:28:10;;;;;;;21.08;8.63;;;;;;;;;;4902225;29;20044;-78
2023/11/11 11:30:39;;;;;;;16.33;8.82;;;;;;;;;;4861216;29;20033;-77
2023/11/11 11:33:06;;;;;;;21.17;9.02;;;;;;;;;;4860689;29;20060;-77
2023/11/11 11:35:35;;;;;;;29.45;9.48;;;;;;;;;;4863943;29;20045;-77
2023/11/11 11:38:01;;;;;;;26.35;9.20;;;;;;;;;;4866283;29;20624;-77
2023/11/11 11:40:28;;;;;;;23.80;9.40;;;;;;;;;;4851045;29;20047;-76
2023/11/11 11:42:54;;;;;;;22.10;11.52;;;;;;;;;;4855900;29;20403;-78
2023/11/11 11:45:28;;;;;;;24.27;10.65;;;;;;;;;;4885540;29;20047;-77
2023/11/11 11:47:54;;;;;;;20.95;11.00;;;;;;;;;;4917902;29;20052;-76
2023/11/11 11:50:19;;;;;;;28.38;12.02;;;;;;;;;;4885996;29;20051;-78
2023/11/11 11:52:46;;;;;;;27.98;11.68;;;;;;;;;;4884855;29;20403;-77
2023/11/11 11:55:12;;;;;;;27.65;12.05;;;;;;;;;;4885269;29;20135;-77
2023/11/11 11:58:03;;;;;;;28.88;12.30;;;;;;;;;;4885117;29;20134;-77
2023/11/11 12:00:30;;;;;;;19.52;10.80;;;;;;;;;;4883339;29;20044;-77
2023/11/11 12:02:57;;;;;;;17.77;10.55;;;;;;;;;;4919106;29;20062;-77
2023/11/11 12:05:25;;;;;;;18.25;9.30;;;;;;;;;;4888118;29;20055;-74
2023/11/11 12:07:51;;;;;;;20.38;9.65;;;;;;;;;;4904896;29;20146;-77
2023/11/11 12:10:18;;;;;;;24.33;9.50;;;;;;;;;;4904441;29;20071;-77
2023/11/11 12:12:46;;;;;;;20.10;9.60;;;;;;;;;;4935105;29;20146;-77
2023/11/11 12:15:12;;;;;;;20.15;9.60;;;;;;;;;;4934940;29;20091;-76
2023/11/11 12:17:42;;;;;;;18.33;9.98;;;;;;;;;;4902621;29;20051;-78
2023/11/11 12:20:10;;;;;;;19.52;9.38;;;;;;;;;;4935192;29;20131;-78
2023/11/11 12:22:40;;;;;;;18.15;10.00;;;;;;;;;;4903282;29;20051;-77
2023/11/11 12:25:06;;;;;;;23.25;9.55;;;;;;;;;;4918849;29;20128;-77
2023/11/11 12:27:35;;;;;;;14.95;9.35;;;;;;;;;;4903829;29;20043;-77
2023/11/11 12:30:02;;;;;;;20.83;9.65;;;;;;;;;;4935262;29;20383;-77
2023/11/11 12:32:29;;;;;;;14.80;8.77;;;;;;;;;;4918387;29;20079;-76
2023/11/11 12:34:55;;;;;;;19.63;9.40;;;;;;;;;;4918006;29;20482;-76
2023/11/11 12:37:20;;;;;;;20.33;9.15;;;;;;;;;;4935692;29;20126;-77
2023/11/11 12:39:53;;;;;;;27.73;9.82;;;;;;;;;;4904063;29;20063;-76
2023/11/11 12:42:25;;;;;;;19.17;10.18;;;;;;;;;;4919349;29;20058;-74
2023/11/11 12:44:50;;;;;;;20.55;10.20;;;;;;;;;;4919575;29;20040;-77
2023/11/11 12:47:16;;;;;;;22.70;10.35;;;;;;;;;;4920092;29;20047;-76
2023/11/11 12:49:50;;;;;;;22.75;12.02;;;;;;;;;;4935720;29;20055;-77
2023/11/11 12:52:16;;;;;;;21.08;11.48;;;;;;;;;;4903696;29;20059;-73
2023/11/11 12:54:42;;;;;;;24.58;11.50;;;;;;;;;;4935485;29;20035;-78
2023/11/11 12:57:08;;;;;;;20.85;10.75;;;;;;;;;;4919332;29;20035;-77
2023/11/11 12:59:34;;;;;;;28.27;11.07;;;;;;;;;;4919604;29;20063;-77
2023/11/11 13:02:00;;;;;;;22.15;10.38;;;;;;;;;;4935396;29;20082;-78
2023/11/11 13:04:28;;;;;;;21.70;10.20;;;;;;;;;;4903318;29;20036;-77
2023/11/11 13:06:53;;;;;;;19.05;9.65;;;;;;;;;;4936287;29;20178;-79
2023/11/11 13:09:19;;;;;;;22.35;10.13;;;;;;;;;;4903476;29;20130;-76
2023/11/11 13:11:47;;;;;;;23.50;10.35;;;;;;;;;;4935312;29;20540;-81
2023/11/11 13:14:14;;;;;;;23.08;10.27;;;;;;;;;;4919156;29;20172;-78
2023/11/11 13:16:43;;;;;;;24.45;11.02;;;;;;;;;;4935005;29;20138;-74
2023/11/11 13:19:10;;;;;;;30.00;12.85;;;;;;;;;;4935138;29;20062;-76
2023/11/11 13:21:38;;;;;;;27.58;12.80;;;;;;;;;;4935219;29;20043;-82
2023/11/11 13:24:09;;;;;;;32.72;12.40;;;;;;;;;;4920589;29;20032;-82
2023/11/11 13:26:35;;;;;;;27.23;12.27;;;;;;;;;;4906249;29;20036;-81
2023/11/11 13:29:01;;;;;;;25.13;10.77;;;;;;;;;;4918631;29;20504;-81
2023/11/11 13:31:28;;;;;;;16.70;10.02;;;;;;;;;;4934694;29;20099;-80
2023/11/11 13:33:54;;;;;;;21.20;10.13;;;;;;;;;;4918559;29;20032;-78
2023/11/11 13:36:27;;;;;;;18.90;9.90;;;;;;;;;;4934361;29;20490;-82
2023/11/11 13:38:57;;;;;;;24.85;11.45;;;;;;;;;;4939507;28;20087;-79
2023/11/11 13:41:27;;;;;;;22.15;11.55;;;;;;;;;;4944619;28;20051;-78
2023/11/11 13:43:54;;;;;;;22.85;11.73;;;;;;;;;;4931425;28;20129;-78
2023/11/11 13:46:20;;;;;;;27.65;13.50;;;;;;;;;;4963041;28;20050;-76
2023/11/11 13:48:50;;;;;;;34.75;12.48;;;;;;;;;;4930869;28;20070;-77
2023/11/11 13:51:16;;;;;;;26.67;12.68;;;;;;;;;;4970551;28;20134;-75
2023/11/11 13:53:43;;;;;;;32.17;13.85;;;;;;;;;;4931204;28;20058;-82
2023/11/11 13:56:10;;;;;;;32.67;13.50;;;;;;;;;;4949215;28;20117;-81
2023/11/11 13:58:35;;;;;;;25.35;13.27;;;;;;;;;;4946591;28;20138;-83
2023/11/11 14:01:04;;;;;;;34.00;14.20;;;;;;;;;;4946091;28;20043;-80
2023/11/11 14:03:29;;;;;;;25.58;14.25;;;;;;;;;;4948081;28;20134;-79
2023/11/11 14:05:55;;;;;;;36.00;14.68;;;;;;;;;;4972821;28;20121;-76
2023/11/11 14:08:23;;;;;;;26.67;13.60;;;;;;;;;;4940369;28;20125;-79
2023/11/11 14:10:50;;;;;;;27.92;15.07;;;;;;;;;;4956542;28;20046;-76
2023/11/11 14:13:16;;;;;;;28.95;14.32;;;;;;;;;;4956261;28;20061;-77
2023/11/11 14:15:48;;;;;;;28.55;14.55;;;;;;;;;;4956016;28;20045;-76